Time;durP1;ratioP1;P1;durP2;ratioP2;P2;SDS_P1;SDS_P2;PMS_P1;PMS_P2;Temp;Humidity;BMP_temperature;BMP_pressure;BME280_temperature;BME280_humidity;BME280_pressure;Samples;Min_cycle;Max_cycle;Signal;HPM_P1;HPM_P2
2022/01/20 10:12:38;;;;;;;13.47;12.67;;;5.90;99.90;;;;;;5086340;28;20576;-72
2022/01/20 10:15:10;;;;;;;14.20;12.70;;;6.90;99.90;;;;;;5086712;28;20452;-71
2022/01/20 10:17:37;;;;;;;13.90;12.77;;;6.80;99.90;;;;;;5086881;28;20450;-71
2022/01/20 10:20:07;;;;;;;14.70;13.60;;;6.60;99.90;;;;;;5086860;28;20446;-71
2022/01/20 10:22:36;;;;;;;13.67;12.77;;;6.40;99.90;;;;;;5086850;28;20474;-71
2022/01/20 10:25:06;;;;;;;11.50;10.70;;;6.40;99.90;;;;;;5086874;28;20828;-72
2022/01/20 10:27:34;;;;;;;14.73;13.23;;;6.40;99.90;;;;;;5087053;28;20946;-72
2022/01/20 10:30:05;;;;;;;13.07;11.87;;;6.40;99.90;;;;;;5086852;28;20931;-71
2022/01/20 10:32:40;;;;;;;14.60;13.60;;;6.40;99.90;;;;;;5086677;28;20460;-70
2022/01/20 10:35:08;;;;;;;13.83;12.40;;;6.40;99.90;;;;;;5086442;28;20453;-71
2022/01/20 10:37:35;;;;;;;13.23;12.13;;;6.30;99.90;;;;;;5086435;28;20451;-71
2022/01/20 10:40:07;;;;;;;13.40;12.53;;;6.40;99.90;;;;;;5086618;28;20796;-71
2022/01/20 10:42:39;;;;;;;13.77;12.80;;;6.30;99.90;;;;;;5086552;28;20472;-71
2022/01/20 10:45:09;;;;;;;13.17;12.03;;;6.30;99.90;;;;;;5086266;28;20457;-71
2022/01/20 10:47:38;;;;;;;13.43;12.37;;;6.40;99.90;;;;;;5086253;28;20448;-71
2022/01/20 10:50:11;;;;;;;12.50;11.70;;;6.50;99.90;;;;;;5086126;28;20456;-72
2022/01/20 10:52:40;;;;;;;12.60;11.77;;;6.70;99.90;;;;;;5086346;28;20490;-72
2022/01/20 10:55:19;;;;;;;12.93;11.70;;;6.80;99.90;;;;;;5086213;28;20468;-71
2022/01/20 10:57:46;;;;;;;12.77;11.67;;;6.90;99.90;;;;;;5086304;28;20485;-71
2022/01/20 11:00:19;;;;;;;12.90;11.80;;;7.10;99.90;;;;;;5086076;28;20536;-71
2022/01/20 11:02:50;;;;;;;12.53;11.43;;;7.40;99.90;;;;;;5086220;28;20470;-72
2022/01/20 11:05:17;;;;;;;12.70;12.00;;;7.60;99.90;;;;;;5086285;28;20527;-72
2022/01/20 11:07:44;;;;;;;13.17;12.17;;;7.40;99.90;;;;;;5086025;28;20450;-72
2022/01/20 11:10:12;;;;;;;13.27;12.37;;;7.40;99.90;;;;;;5085562;28;20449;-73
2022/01/20 11:12:39;;;;;;;12.30;11.70;;;7.30;99.90;;;;;;5077262;28;20995;-73
2022/01/20 11:15:10;;;;;;;12.87;12.13;;;7.30;99.90;;;;;;5071823;28;20967;-73
2022/01/20 11:17:40;;;;;;;12.47;11.57;;;7.40;99.90;;;;;;5071875;28;20459;-73
2022/01/20 11:20:09;;;;;;;13.27;12.47;;;7.40;99.90;;;;;;5072158;28;20515;-73
2022/01/20 11:22:37;;;;;;;12.87;12.17;;;7.20;99.90;;;;;;5072033;28;20450;-73
2022/01/20 11:25:06;;;;;;;13.57;12.70;;;7.20;99.90;;;;;;5072101;28;20505;-73
2022/01/20 11:27:38;;;;;;;12.70;11.80;;;7.00;99.90;;;;;;5072180;28;20446;-73
2022/01/20 11:30:17;;;;;;;15.17;12.03;;;6.90;99.90;;;;;;5071866;28;20500;-73
2022/01/20 11:32:58;;;;;;;12.93;11.30;;;6.90;99.90;;;;;;5072082;28;20538;-72
2022/01/20 11:35:37;;;;;;;12.83;12.03;;;6.80;99.90;;;;;;5071941;28;20463;-73
2022/01/20 11:38:04;;;;;;;12.93;11.93;;;6.80;99.90;;;;;;5072029;28;20454;-73
2022/01/20 11:40:30;;;;;;;12.50;11.70;;;6.80;99.90;;;;;;5071994;28;20481;-72
2022/01/20 11:42:59;;;;;;;13.70;12.90;;;6.90;99.90;;;;;;5071590;28;20446;-73
2022/01/20 11:45:29;;;;;;;13.20;12.30;;;6.90;99.90;;;;;;5071787;28;20485;-73
2022/01/20 11:47:57;;;;;;;13.23;12.50;;;7.00;99.90;;;;;;5071694;28;20453;-73
2022/01/20 11:50:24;;;;;;;13.30;12.50;;;7.10;99.90;;;;;;5071454;28;20457;-72
2022/01/20 11:52:51;;;;;;;12.13;11.20;;;7.40;99.90;;;;;;5071545;28;20451;-73
2022/01/20 11:55:19;;;;;;;12.40;11.60;;;8.00;99.90;;;;;;5071860;28;20455;-74
2022/01/20 11:57:46;;;;;;;13.73;12.43;;;8.70;99.90;;;;;;5071744;28;20447;-73
2022/01/20 12:00:24;;;;;;;13.07;12.13;;;8.90;99.90;;;;;;5071386;28;20995;-74
2022/01/20 12:02:52;;;;;;;12.67;11.47;;;8.90;99.90;;;;;;5071273;28;20478;-73
2022/01/20 12:05:26;;;;;;;11.77;11.03;;;9.00;99.90;;;;;;5071359;28;20459;-73
2022/01/20 12:08:04;;;;;;;12.13;11.30;;;9.10;99.90;;;;;;5071361;28;20451;-74
2022/01/20 12:10:31;;;;;;;12.27;11.47;;;9.60;99.90;;;;;;5071520;28;20483;-73
2022/01/20 12:13:06;;;;;;;13.07;12.13;;;9.20;99.90;;;;;;5071306;28;20459;-73
2022/01/20 12:15:33;;;;;;;12.67;11.70;;;8.70;99.90;;;;;;5071387;28;20881;-73
2022/01/20 12:18:00;;;;;;;12.57;11.70;;;8.30;99.90;;;;;;5071318;28;20482;-73
2022/01/20 12:20:28;;;;;;;11.97;11.30;;;8.10;99.90;;;;;;5071026;28;20462;-74
2022/01/20 12:22:55;;;;;;;12.10;11.10;;;7.70;99.90;;;;;;5070904;28;20459;-73
2022/01/20 12:25:24;;;;;;;11.30;10.50;;;7.30;99.90;;;;;;5070070;28;20941;-73
2022/01/20 12:27:51;;;;;;;11.90;11.40;;;6.90;99.90;;;;;;5071045;28;20456;-73
2022/01/20 12:30:22;;;;;;;12.70;12.20;;;6.00;99.90;;;;;;5071101;28;20474;-72
2022/01/20 12:33:01;;;;;;;12.77;12.37;;;5.20;99.90;;;;;;5070994;28;20445;-74
2022/01/20 12:35:38;;;;;;;15.87;14.47;;;4.60;99.90;;;;;;5070930;28;20998;-72
2022/01/20 12:38:15;;;;;;;15.50;14.80;;;4.00;99.90;;;;;;5070755;28;20539;-73
2022/01/20 12:40:42;;;;;;;16.23;15.60;;;3.80;99.90;;;;;;5070741;28;20457;-73
2022/01/20 12:43:09;;;;;;;16.27;15.47;;;3.60;99.90;;;;;;5070541;28;20443;-73
2022/01/20 12:48:20;;;;;;;19.03;17.83;;;3.40;99.90;;;;;;5070636;28;20973;-74
2022/01/20 12:50:59;;;;;;;19.43;18.17;;;3.40;99.90;;;;;;5070765;28;20453;-72
2022/01/20 12:53:37;;;;;;;20.13;18.87;;;3.50;99.90;;;;;;5070573;28;20819;-74
2022/01/20 12:56:05;;;;;;;21.70;20.40;;;3.50;99.90;;;;;;5070345;28;20461;-73
2022/01/20 12:58:32;;;;;;;21.20;20.17;;;3.60;99.90;;;;;;5070484;28;20500;-73
2022/01/20 13:01:01;;;;;;;20.70;19.40;;;3.60;99.90;;;;;;5070251;28;20976;-73
2022/01/20 13:03:36;;;;;;;18.70;17.40;;;3.70;99.90;;;;;;5070075;28;21015;-73
2022/01/20 13:06:05;;;;;;;18.40;17.70;;;3.70;99.90;;;;;;5070345;28;20454;-73
2022/01/20 13:08:36;;;;;;;21.07;19.50;;;3.70;99.90;;;;;;5070540;28;20548;-74
2022/01/20 13:11:04;;;;;;;17.00;16.20;;;3.70;99.90;;;;;;5070312;28;20908;-73
2022/01/20 13:13:31;;;;;;;18.43;17.57;;;3.70;99.90;;;;;;5070497;28;20511;-73
2022/01/20 13:15:58;;;;;;;18.93;18.03;;;3.80;99.90;;;;;;5070141;28;20446;-73
2022/01/20 13:18:24;;;;;;;18.50;17.50;;;3.80;99.90;;;;;;5069973;28;20448;-73
2022/01/20 13:20:58;;;;;;;19.73;18.30;;;3.80;99.90;;;;;;5069968;28;20454;-72
2022/01/20 13:26:11;;;;;;;17.83;17.03;;;3.90;99.90;;;;;;5070306;28;20920;-72
2022/01/20 13:28:38;;;;;;;18.67;17.30;;;3.90;99.90;;;;;;5070018;28;20685;-72
2022/01/20 13:31:15;;;;;;;19.40;18.20;;;3.80;99.90;;;;;;5069787;28;20945;-72
2022/01/20 13:33:43;;;;;;;19.73;18.53;;;3.90;99.90;;;;;;5069463;28;20453;-72
2022/01/20 13:36:10;;;;;;;19.10;18.30;;;3.90;99.90;;;;;;5069373;28;20560;-72
2022/01/20 13:38:45;;;;;;;22.10;20.47;;;3.90;99.90;;;;;;5069577;28;20455;-72
2022/01/20 13:41:14;;;;;;;20.17;19.00;;;4.00;99.90;;;;;;5069593;28;20852;-73
2022/01/20 13:46:31;;;;;;;20.40;19.20;;;3.90;99.90;;;;;;5070050;28;20437;-73
2022/01/20 13:49:07;;;;;;;20.83;19.40;;;3.90;99.90;;;;;;5069554;28;20529;-73
2022/01/20 13:51:34;;;;;;;20.10;18.80;;;4.00;99.90;;;;;;5069672;28;20494;-73
2022/01/20 13:54:03;;;;;;;21.53;20.00;;;4.00;99.90;;;;;;5069850;28;20537;-73
2022/01/20 13:56:30;;;;;;;20.77;19.87;;;4.00;99.90;;;;;;5069843;28;20452;-73
2022/01/20 13:59:05;;;;;;;21.40;20.27;;;3.90;99.90;;;;;;5069556;28;20504;-72
2022/01/20 14:01:32;;;;;;;22.17;20.40;;;3.90;99.90;;;;;;5069753;28;20509;-73
2022/01/20 14:03:59;;;;;;;21.67;20.20;;;3.90;99.90;;;;;;5069325;28;20479;-72
2022/01/20 14:06:26;;;;;;;25.13;23.63;;;3.90;99.90;;;;;;5069338;28;20446;-72
2022/01/20 14:08:53;;;;;;;23.40;21.70;;;4.00;99.90;;;;;;5069330;28;20698;-73
2022/01/20 14:11:21;;;;;;;21.13;20.00;;;4.10;99.90;;;;;;5069319;28;21016;-73
2022/01/20 14:13:49;;;;;;;21.60;20.40;;;4.00;99.90;;;;;;5069485;28;20967;-72
2022/01/20 14:16:15;;;;;;;22.53;20.70;;;4.10;99.90;;;;;;5069619;28;20452;-73
2022/01/20 14:18:44;;;;;;;22.17;20.83;;;4.30;99.90;;;;;;5069163;28;20830;-73
2022/01/20 14:21:13;;;;;;;21.20;19.60;;;4.20;99.90;;;;;;5069315;28;20462;-73
2022/01/20 14:23:40;;;;;;;21.87;20.57;;;4.20;99.90;;;;;;5069256;28;20454;-73
2022/01/20 14:26:11;;;;;;;24.07;22.40;;;4.10;99.90;;;;;;5069264;28;20839;-72
2022/01/20 14:28:39;;;;;;;21.40;20.30;;;4.10;99.90;;;;;;5069277;28;20497;-72
2022/01/20 14:31:06;;;;;;;22.23;21.00;;;4.00;99.90;;;;;;5069198;28;20507;-73
2022/01/20 14:33:33;;;;;;;22.23;21.07;;;3.90;99.90;;;;;;5069424;28;20968;-73
2022/01/20 14:35:59;;;;;;;24.50;22.67;;;3.90;99.90;;;;;;5069319;28;20548;-73
2022/01/20 14:38:28;;;;;;;25.40;23.90;;;3.90;99.90;;;;;;5069305;28;20457;-73
2022/01/20 14:40:56;;;;;;;22.70;21.50;;;3.90;99.90;;;;;;5069260;28;20538;-73
2022/01/20 14:43:23;;;;;;;25.43;23.73;;;3.80;99.90;;;;;;5069097;28;20544;-74
2022/01/20 14:45:52;;;;;;;23.63;22.50;;;3.80;99.90;;;;;;5069177;28;20953;-73
2022/01/20 14:48:19;;;;;;;27.23;25.27;;;3.80;99.90;;;;;;5071843;28;20875;-73
2022/01/20 14:50:46;;;;;;;26.23;24.57;;;3.60;99.90;;;;;;5073142;28;20986;-73
2022/01/20 14:53:14;;;;;;;25.43;23.03;;;3.60;99.90;;;;;;5073032;28;20443;-74
2022/01/20 14:55:41;;;;;;;25.80;24.30;;;3.60;99.90;;;;;;5072700;28;20453;-73
2022/01/20 14:58:07;;;;;;;25.27;24.00;;;3.60;99.90;;;;;;5072689;28;20494;-74
2022/01/20 15:00:35;;;;;;;24.27;22.97;;;3.60;99.90;;;;;;5072595;28;20947;-74
2022/01/20 15:03:04;;;;;;;24.27;23.00;;;3.60;99.90;;;;;;5072565;28;20580;-73
2022/01/20 15:05:32;;;;;;;25.07;23.03;;;3.70;99.90;;;;;;5072974;28;20448;-73
2022/01/20 15:07:59;;;;;;;24.30;22.97;;;3.70;99.90;;;;;;5072520;28;20458;-73
2022/01/20 15:10:25;;;;;;;22.70;21.70;;;3.60;99.90;;;;;;5072099;28;20817;-73
2022/01/20 15:12:59;;;;;;;23.50;22.20;;;3.50;99.90;;;;;;5072304;28;20452;-72
2022/01/20 15:15:26;;;;;;;21.70;20.50;;;3.50;99.90;;;;;;5072356;28;20466;-72
2022/01/20 15:17:53;;;;;;;22.13;20.50;;;3.50;99.90;;;;;;5072125;28;20440;-72
2022/01/20 15:20:21;;;;;;;23.17;21.30;;;3.50;99.90;;;;;;5072307;28;20508;-72
2022/01/20 15:22:47;;;;;;;21.37;19.97;;;3.50;99.90;;;;;;5072372;28;21002;-72
2022/01/20 15:25:14;;;;;;;21.73;20.53;;;3.50;99.90;;;;;;5072259;28;20827;-73
2022/01/20 15:27:41;;;;;;;21.33;19.93;;;3.60;99.90;;;;;;5072053;28;20874;-73
2022/01/20 15:30:09;;;;;;;24.00;21.97;;;3.60;99.90;;;;;;5071995;28;20485;-73
2022/01/20 15:32:35;;;;;;;22.17;20.67;;;3.60;99.90;;;;;;5071935;28;20499;-71
2022/01/20 15:35:03;;;;;;;22.63;20.97;;;3.60;99.90;;;;;;5072243;28;20453;-71
2022/01/20 15:37:31;;;;;;;22.70;21.23;;;3.60;99.90;;;;;;5071927;28;20450;-72
2022/01/20 15:39:58;;;;;;;20.73;19.60;;;3.60;99.90;;;;;;5071973;28;20444;-72
2022/01/20 15:42:25;;;;;;;21.00;19.70;;;3.60;99.90;;;;;;5071653;28;20490;-71
2022/01/20 15:44:52;;;;;;;20.90;19.70;;;3.60;99.90;;;;;;5071737;28;20509;-71
2022/01/20 15:47:19;;;;;;;21.57;19.97;;;3.50;99.90;;;;;;5071804;28;20447;-72
2022/01/20 15:49:45;;;;;;;24.50;19.87;;;3.30;99.90;;;;;;5071983;28;20470;-71
2022/01/20 15:52:12;;;;;;;22.60;20.77;;;3.20;99.90;;;;;;5071682;28;20452;-72
2022/01/20 15:54:40;;;;;;;20.50;19.50;;;3.10;99.90;;;;;;5071529;28;20687;-72
2022/01/20 15:57:07;;;;;;;21.43;20.37;;;3.10;99.90;;;;;;5071616;28;20460;-72
2022/01/20 15:59:34;;;;;;;19.07;18.00;;;3.00;99.90;;;;;;5071722;28;20449;-71
2022/01/20 16:02:01;;;;;;;19.53;18.20;;;3.00;99.90;;;;;;5071551;28;20486;-72
2022/01/20 16:04:27;;;;;;;20.90;19.10;;;3.00;99.90;;;;;;5071422;28;20505;-72
2022/01/20 16:06:54;;;;;;;19.40;17.90;;;3.00;99.90;;;;;;5071318;28;20452;-72
2022/01/20 16:09:21;;;;;;;23.00;20.73;;;3.10;99.90;;;;;;5071088;28;20496;-72
2022/01/20 16:11:49;;;;;;;18.60;16.90;;;3.10;99.90;;;;;;5071380;28;20570;-72
2022/01/20 16:14:16;;;;;;;17.37;16.47;;;3.10;99.90;;;;;;5071601;28;20501;-72
2022/01/20 16:16:43;;;;;;;19.73;18.10;;;3.10;99.90;;;;;;5071116;28;20558;-72
2022/01/20 16:19:10;;;;;;;18.33;16.87;;;3.10;99.90;;;;;;5071030;28;20817;-72
2022/01/20 16:21:37;;;;;;;17.30;15.73;;;3.00;99.90;;;;;;5070910;28;20498;-72
2022/01/20 16:24:05;;;;;;;15.47;14.70;;;3.00;99.90;;;;;;5071246;28;20508;-72
2022/01/20 16:26:32;;;;;;;15.70;14.80;;;2.90;99.90;;;;;;5071166;28;20456;-73
2022/01/20 16:29:01;;;;;;;16.60;15.47;;;2.90;99.90;;;;;;5070956;28;20458;-73
2022/01/20 16:31:28;;;;;;;16.77;15.40;;;2.80;99.90;;;;;;5071052;28;20515;-73
2022/01/20 16:33:55;;;;;;;15.10;14.30;;;2.70;99.90;;;;;;5070569;28;20449;-72
2022/01/20 16:36:22;;;;;;;16.20;14.87;;;2.70;99.90;;;;;;5070785;28;20454;-73
2022/01/20 16:38:49;;;;;;;16.03;14.80;;;2.60;99.90;;;;;;5070766;28;20459;-73
2022/01/20 16:41:16;;;;;;;15.57;14.03;;;2.50;99.90;;;;;;5070844;28;20455;-73
2022/01/20 16:43:43;;;;;;;133.97;93.70;;;2.50;99.90;;;;;;5070482;28;20651;-73
2022/01/20 16:46:11;;;;;;;17.20;16.20;;;2.40;99.90;;;;;;5070579;28;21184;-73
2022/01/20 16:48:39;;;;;;;91.03;69.33;;;2.30;99.90;;;;;;5070253;28;20557;-73
2022/01/20 16:51:06;;;;;;;14.30;13.30;;;2.30;99.90;;;;;;5070416;28;20494;-73
2022/01/20 16:53:33;;;;;;;14.67;13.30;;;2.30;99.90;;;;;;5070876;28;20450;-73
2022/01/20 16:55:59;;;;;;;15.07;13.87;;;2.20;99.90;;;;;;5070571;28;20453;-73
2022/01/20 16:58:26;;;;;;;14.27;13.17;;;2.20;99.90;;;;;;5070298;28;20463;-73
2022/01/20 17:00:53;;;;;;;16.83;15.10;;;2.20;99.90;;;;;;5070261;28;20519;-73
2022/01/20 17:03:21;;;;;;;13.73;12.70;;;2.10;99.90;;;;;;5070361;28;20533;-73
2022/01/20 17:05:50;;;;;;;14.40;13.37;;;2.10;99.90;;;;;;5070478;28;20455;-73
2022/01/20 17:08:17;;;;;;;15.73;12.30;;;2.10;99.90;;;;;;5070585;28;20451;-73
2022/01/20 17:10:44;;;;;;;15.00;13.70;;;2.20;99.90;;;;;;5069669;28;20476;-74
2022/01/20 17:13:12;;;;;;;12.60;11.80;;;2.20;99.90;;;;;;5070145;28;20453;-73
2022/01/20 17:15:39;;;;;;;17.70;14.30;;;2.10;99.90;;;;;;5070011;28;20457;-73
2022/01/20 17:18:06;;;;;;;14.00;13.00;;;2.20;99.90;;;;;;5070156;28;20452;-73
2022/01/20 17:20:35;;;;;;;14.07;12.60;;;2.30;99.90;;;;;;5070031;28;20462;-73
2022/01/20 17:23:02;;;;;;;13.53;12.43;;;2.30;99.90;;;;;;5070268;28;20497;-73
2022/01/20 17:25:28;;;;;;;14.80;12.20;;;2.40;99.90;;;;;;5069934;28;20476;-72
2022/01/20 17:27:55;;;;;;;12.33;11.63;;;2.50;99.90;;;;;;5069805;28;20462;-72
2022/01/20 17:30:23;;;;;;;12.40;11.53;;;2.70;99.90;;;;;;5069787;28;20446;-72
2022/01/20 17:32:50;;;;;;;12.17;11.53;;;2.90;99.90;;;;;;5070072;28;20447;-72
2022/01/20 17:35:16;;;;;;;12.27;11.37;;;3.00;99.90;;;;;;5070046;28;20456;-72
2022/01/20 17:37:45;;;;;;;12.70;10.30;;;3.10;99.90;;;;;;5069941;28;20494;-72
2022/01/20 17:40:13;;;;;;;11.83;10.80;;;3.20;99.90;;;;;;5069614;28;20447;-71
2022/01/20 17:42:40;;;;;;;16.00;11.37;;;3.20;99.90;;;;;;5069575;28;20736;-72
2022/01/20 17:45:10;;;;;;;11.30;10.60;;;3.20;99.90;;;;;;5069778;28;20468;-71
2022/01/20 17:47:36;;;;;;;11.27;10.50;;;3.10;99.90;;;;;;5069646;28;20467;-71
2022/01/20 17:50:04;;;;;;;10.87;10.20;;;3.10;99.90;;;;;;5069827;28;20464;-71
2022/01/20 17:52:31;;;;;;;11.70;10.60;;;3.00;99.90;;;;;;5069874;28;20443;-71
2022/01/20 17:54:59;;;;;;;11.40;10.33;;;3.00;99.90;;;;;;5069416;28;20956;-72
2022/01/20 17:57:25;;;;;;;12.20;11.20;;;3.00;99.90;;;;;;5069747;28;20448;-72
